createdAt,value
2018-06-10T00:05:01.303Z,99793.38
2018-06-10T00:07:31.785Z,99800.28
2018-06-10T00:10:01.761Z,99801.26
2018-06-10T00:12:32.208Z,99806.82
2018-06-10T00:15:01.724Z,99817.51
2018-06-10T00:17:32.591Z,99810.76
2018-06-10T00:20:02.224Z,99813.39
2018-06-10T00:22:31.996Z,99823.11
2018-06-10T00:28:00.199Z,99827.34
2018-06-10T00:30:30.348Z,99827.37
2018-06-10T00:33:00.257Z,99832.56
2018-06-10T00:36:08.944Z,99834.69
2018-06-10T00:38:38.487Z,99827.89
2018-06-10T00:41:09.449Z,99841.31
2018-06-10T00:43:38.504Z,99841.13
2018-06-10T00:46:07.929Z,99849.48
2018-06-10T00:48:37.036Z,99846.88
2018-06-10T00:51:06.582Z,99849.59
2018-06-10T00:53:36.280Z,99853.26
2018-06-10T00:57:08.899Z,99850.80
2018-06-10T00:59:38.558Z,99857.07
2018-06-10T01:02:28.312Z,99853.11
2018-06-10T01:05:00.661Z,99846.58
2018-06-10T01:07:31.133Z,99852.56
2018-06-10T01:10:02.337Z,99857.52
2018-06-10T01:12:32.441Z,99851.52
2018-06-10T01:15:02.036Z,99855.53
2018-06-10T01:17:32.338Z,99854.08
2018-06-10T01:20:02.447Z,99852.91
2018-06-10T01:22:33.044Z,99857.23
2018-06-10T01:25:04.384Z,99848.84
2018-06-10T01:27:33.914Z,99850.27
2018-06-10T01:30:04.175Z,99854.02
2018-06-10T01:32:33.895Z,99847.77
2018-06-10T01:35:03.015Z,99844.33
2018-06-10T01:37:32.936Z,99837.47
2018-06-10T01:40:04.017Z,99843.53
2018-06-10T01:42:33.596Z,99834.14
2018-06-10T01:45:03.432Z,99842.35
2018-06-10T01:47:33.348Z,99843.17
2018-06-10T01:50:03.238Z,99849.35
2018-06-10T01:52:33.095Z,99848.80
2018-06-10T01:55:05.097Z,99843.27
2018-06-10T01:57:36.362Z,99834.51
2018-06-10T02:00:06.286Z,99838.92
2018-06-10T02:02:38.139Z,99838.77
2018-06-10T02:05:08.049Z,99836.59
2018-06-10T02:10:27.831Z,99834.81
2018-06-10T02:15:57.891Z,99830.75
2018-06-10T02:18:30.232Z,99829.65
2018-06-10T02:21:01.378Z,99831.42
2018-06-10T02:23:31.519Z,99826.77
2018-06-10T02:26:02.228Z,99824.53
2018-06-10T02:28:56.737Z,99821.13
2018-06-10T02:31:30.243Z,99818.63
2018-06-10T02:34:09.533Z,99818.12
2018-06-10T02:36:38.813Z,99815.77
2018-06-10T02:39:08.649Z,99819.21
2018-06-10T02:41:38.131Z,99817.11
2018-06-10T02:44:29.643Z,99811.86
2018-06-10T02:47:00.063Z,99805.50
2018-06-10T02:49:30.809Z,99806.20
2018-06-10T02:52:02.912Z,99806.78
2018-06-10T02:59:33.444Z,99804.00
2018-06-10T03:02:03.271Z,99818.07
2018-06-10T03:04:32.776Z,99816.50
2018-06-10T03:07:02.309Z,99821.66
2018-06-10T03:12:29.430Z,99811.25
2018-06-10T03:15:07.428Z,99816.37
2018-06-10T03:17:39.699Z,99815.08
2018-06-10T03:20:28.740Z,99811.89
2018-06-10T03:22:59.581Z,99806.91
2018-06-10T03:25:34.260Z,99809.59
2018-06-10T03:28:24.151Z,99806.44
2018-06-10T03:30:58.012Z,99810.37
2018-06-10T03:33:28.390Z,99812.38
2018-06-10T03:36:00.158Z,99814.12
2018-06-10T03:41:24.974Z,99812.01
2018-06-10T03:44:02.971Z,99814.33
2018-06-10T03:46:33.094Z,99811.42
2018-06-10T03:49:02.807Z,99806.36
2018-06-10T03:51:32.664Z,99808.17
2018-06-10T03:54:02.165Z,99815.88
2018-06-10T03:56:32.684Z,99820.53
2018-06-10T03:59:02.905Z,99821.86
2018-06-10T04:01:37.527Z,99832.97
2018-06-10T04:04:07.003Z,99819.44
2018-06-10T04:06:36.229Z,99817.42
2018-06-10T04:11:58.933Z,99813.61
2018-06-10T04:14:28.940Z,99816.73
2018-06-10T04:16:58.916Z,99814.86
2018-06-10T04:19:29.215Z,99823.52
2018-06-10T04:21:59.406Z,99816.46
2018-06-10T04:24:29.574Z,99817.42
2018-06-10T04:27:00.156Z,99816.44
2018-06-10T04:29:30.333Z,99819.23
2018-06-10T04:32:01.416Z,99828.23
2018-06-10T04:34:31.940Z,99823.54
2018-06-10T04:37:02.444Z,99833.34
2018-06-10T04:39:32.593Z,99829.85
2018-06-10T04:42:02.560Z,99835.23
2018-06-10T04:44:32.938Z,99836.90
2018-06-10T04:47:03.509Z,99831.73
2018-06-10T04:49:33.849Z,99828.33
2018-06-10T04:52:04.671Z,99834.55
2018-06-10T04:54:34.338Z,99826.72
2018-06-10T04:57:03.678Z,99833.77
2018-06-10T04:59:33.678Z,99828.67
2018-06-10T05:02:05.643Z,99835.30
2018-06-10T05:04:35.257Z,99838.20
2018-06-10T05:07:04.608Z,99835.98
2018-06-10T05:09:34.072Z,99834.19
2018-06-10T05:12:03.924Z,99835.20
2018-06-10T05:14:33.503Z,99834.34
2018-06-10T05:17:03.613Z,99832.23
2018-06-10T05:19:33.645Z,99832.26
2018-06-10T05:22:03.413Z,99841.27
2018-06-10T05:24:33.259Z,99838.30
2018-06-10T05:27:03.331Z,99838.57
2018-06-10T05:29:33.222Z,99847.17
2018-06-10T05:32:02.992Z,99843.10
2018-06-10T05:34:33.681Z,99839.70
2018-06-10T05:37:03.605Z,99841.78
2018-06-10T05:39:32.817Z,99838.12
2018-06-10T05:42:02.325Z,99833.83
2018-06-10T05:44:32.700Z,99834.06
2018-06-10T05:47:02.919Z,99833.04
2018-06-10T05:49:32.844Z,99830.89
2018-06-10T05:52:02.916Z,99838.64
2018-06-10T05:57:29.814Z,99845.55
2018-06-10T06:02:44.344Z,99845.53
2018-06-10T06:05:37.021Z,99850.54
2018-06-10T06:08:06.553Z,99855.83
2018-06-10T06:10:35.675Z,99854.80
2018-06-10T06:13:05.790Z,99853.25
2018-06-10T06:15:35.242Z,99850.90
2018-06-10T06:18:04.616Z,99845.59
2018-06-10T06:20:33.900Z,99849.08
2018-06-10T06:23:03.812Z,99842.66
2018-06-10T06:25:33.493Z,99843.20
2018-06-10T06:28:05.092Z,99852.28
2018-06-10T06:30:37.762Z,99857.12
2018-06-10T06:33:07.265Z,99850.36
2018-06-10T06:36:00.584Z,99854.23
2018-06-10T06:38:31.245Z,99848.13
2018-06-10T06:41:01.426Z,99837.45
2018-06-10T06:43:33.816Z,99853.28
2018-06-10T06:46:04.915Z,99851.80
2018-06-10T06:48:34.504Z,99852.41
2018-06-10T06:51:33.822Z,99848.33
2018-06-10T06:54:05.084Z,99851.48
2018-06-10T06:56:34.438Z,99847.06
2018-06-10T06:59:06.023Z,99845.27
2018-06-10T07:01:36.407Z,99840.05
2018-06-10T07:04:06.197Z,99842.16
2018-06-10T07:09:38.360Z,99842.65
2018-06-10T07:12:08.408Z,99845.83
2018-06-10T07:17:41.459Z,99834.68
2018-06-10T07:20:27.797Z,99844.35
2018-06-10T07:23:08.531Z,99840.83
2018-06-10T07:26:10.437Z,99842.22
2018-06-10T07:28:39.596Z,99838.00
2018-06-10T07:31:09.721Z,99837.55
2018-06-10T07:33:38.843Z,99836.13
2018-06-10T07:36:08.016Z,99832.28
2018-06-10T07:38:36.941Z,99838.41
2018-06-10T07:41:06.713Z,99832.09
2018-06-10T07:43:36.124Z,99836.66
2018-06-10T07:46:05.735Z,99830.77
2018-06-10T07:48:37.472Z,99838.59
2018-06-10T07:51:16.705Z,99839.98
2018-06-10T07:53:45.479Z,99837.34
2018-06-10T07:56:14.251Z,99831.70
2018-06-10T07:58:46.368Z,99826.05
2018-06-10T08:01:30.093Z,99832.85
2018-06-10T08:04:01.018Z,99830.64
2018-06-10T08:06:32.005Z,99831.98
2018-06-10T08:09:01.665Z,99828.48
2018-06-10T08:17:18.602Z,99823.27
2018-06-10T08:19:47.268Z,99823.53
2018-06-10T08:22:15.667Z,99822.84
2018-06-10T08:24:44.105Z,99818.98
2018-06-10T08:27:12.545Z,99820.72
2018-06-10T08:29:40.943Z,99814.23
2018-06-10T08:32:09.407Z,99814.31
2018-06-10T08:34:37.806Z,99812.50
2018-06-10T08:37:06.250Z,99815.17
2018-06-10T08:39:34.711Z,99811.56
2018-06-10T08:42:03.160Z,99811.56
2018-06-10T08:44:31.759Z,99814.13
2018-06-10T08:47:00.231Z,99816.77
2018-06-10T08:49:28.647Z,99821.09
2018-06-10T08:51:57.106Z,99811.94
2018-06-10T08:54:25.529Z,99816.20
2018-06-10T08:56:54.214Z,99814.53
2018-06-10T08:59:22.593Z,99807.20
2018-06-10T09:01:51.031Z,99806.26
2018-06-10T09:04:19.459Z,99804.88
2018-06-10T09:06:47.881Z,99812.73
2018-06-10T09:09:16.692Z,99802.12
2018-06-10T09:11:45.133Z,99805.30
2018-06-10T09:14:13.593Z,99806.27
2018-06-10T09:16:42.019Z,99805.20
2018-06-10T09:19:10.429Z,99803.59
2018-06-10T09:21:39.203Z,99807.12
2018-06-10T09:24:07.635Z,99808.11
2018-06-10T09:26:36.060Z,99807.11
2018-06-10T09:29:04.548Z,99809.60
2018-06-10T09:31:32.954Z,99811.00
2018-06-10T09:34:01.801Z,99815.20
2018-06-10T09:36:30.287Z,99809.09
2018-06-10T09:38:58.701Z,99808.91
2018-06-10T09:41:27.136Z,99803.45
2018-06-10T09:43:55.543Z,99803.09
2018-06-10T09:46:24.131Z,99801.95
2018-06-10T09:48:52.583Z,99800.17
2018-06-10T09:51:20.991Z,99796.60
2018-06-10T09:53:49.435Z,99799.08
2018-06-10T09:56:17.862Z,99798.45
2018-06-10T09:58:46.438Z,99797.44
2018-06-10T10:01:14.867Z,99796.45
2018-06-10T10:03:43.307Z,99794.92
2018-06-10T10:06:11.739Z,99795.33
2018-06-10T10:08:40.143Z,99788.03
2018-06-10T10:11:08.657Z,99784.06
2018-06-10T10:13:37.088Z,99789.39
2018-06-10T10:16:05.547Z,99787.61
2018-06-10T10:18:34.008Z,99787.13
2018-06-10T10:21:02.439Z,99783.48
2018-06-10T10:23:30.867Z,99787.71
2018-06-10T10:25:59.311Z,99784.12
2018-06-10T10:28:27.723Z,99785.05
2018-06-10T10:30:56.161Z,99778.91
2018-06-10T10:33:24.586Z,99781.70
2018-06-10T10:35:53.029Z,99778.44
2018-06-10T10:38:21.448Z,99782.73
2018-06-10T10:40:49.864Z,99781.38
2018-06-10T10:43:18.347Z,99789.77
2018-06-10T10:45:46.815Z,99787.52
2018-06-10T10:48:15.399Z,99789.25
2018-06-10T10:50:43.820Z,99782.73
2018-06-10T10:53:12.227Z,99780.19
2018-06-10T10:55:40.711Z,99780.33
2018-06-10T10:58:09.159Z,99777.95
2018-06-10T11:00:37.610Z,99771.78
2018-06-10T11:03:06.071Z,99771.80
2018-06-10T11:05:34.459Z,99763.72
2018-06-10T11:08:02.891Z,99761.30
2018-06-10T11:10:31.303Z,99762.73
2018-06-10T11:12:59.897Z,99747.31
2018-06-10T11:15:28.400Z,99745.10
2018-06-10T11:17:56.819Z,99740.91
2018-06-10T11:20:25.326Z,99740.16
2018-06-10T11:22:53.694Z,99739.45
2018-06-10T11:25:22.200Z,99744.41
2018-06-10T11:27:50.629Z,99739.08
2018-06-10T11:30:19.037Z,99730.20
2018-06-10T11:32:47.471Z,99731.03
2018-06-10T11:35:15.867Z,99730.46
2018-06-10T11:37:44.483Z,99731.36
2018-06-10T11:40:12.945Z,99725.89
2018-06-10T11:42:41.359Z,99725.13
2018-06-10T11:45:09.847Z,99730.34
2018-06-10T11:47:38.270Z,99730.69
2018-06-10T11:50:06.715Z,99724.53
2018-06-10T11:52:35.132Z,99724.68
2018-06-10T11:55:03.567Z,99726.16
2018-06-10T11:57:32.013Z,99717.84
2018-06-10T12:00:00.403Z,99714.47
2018-06-10T12:02:28.924Z,99716.72
2018-06-10T12:04:57.335Z,99713.10
2018-06-10T12:07:25.776Z,99721.48
2018-06-10T12:09:54.211Z,99719.11
2018-06-10T12:12:22.743Z,99716.02
2018-06-10T12:14:51.205Z,99713.50
2018-06-10T12:17:19.670Z,99708.71
2018-06-10T12:19:48.116Z,99713.15
2018-06-10T12:22:16.579Z,99699.79
2018-06-10T12:24:44.961Z,99706.20
2018-06-10T12:27:13.632Z,99709.38
2018-06-10T12:29:42.080Z,99711.65
2018-06-10T12:32:10.512Z,99701.69
2018-06-10T12:34:38.959Z,99708.09
2018-06-10T12:37:07.377Z,99697.25
2018-06-10T12:39:35.811Z,99698.75
2018-06-10T12:42:04.240Z,99698.70
2018-06-10T12:44:32.680Z,99706.80
2018-06-10T12:47:01.103Z,99700.86
2018-06-10T12:49:29.546Z,99699.24
2018-06-10T12:51:57.968Z,99702.81
2018-06-10T12:54:26.432Z,99701.02
2018-06-10T12:56:54.912Z,99697.06
2018-06-10T12:59:23.304Z,99698.44
2018-06-10T13:01:52.000Z,99696.77
2018-06-10T13:04:20.511Z,99696.25
2018-06-10T13:06:48.888Z,99689.70
2018-06-10T13:09:17.348Z,99682.73
2018-06-10T13:11:45.755Z,99684.71
2018-06-10T13:14:14.155Z,99692.75
2018-06-10T13:16:42.594Z,99681.16
2018-06-10T13:19:11.019Z,99682.91
2018-06-10T13:21:39.591Z,99678.22
2018-06-10T13:24:07.983Z,99674.95
2018-06-10T13:26:36.375Z,99676.04
2018-06-10T13:29:04.827Z,99676.52
2018-06-10T13:31:33.239Z,99671.42
2018-06-10T13:34:01.748Z,99679.80
2018-06-10T13:36:30.222Z,99687.87
2018-06-10T13:38:58.639Z,99688.57
2018-06-10T13:41:27.103Z,99678.88
2018-06-10T13:43:56.015Z,99680.59
2018-06-10T13:46:24.588Z,99685.38
2018-06-10T13:48:53.060Z,99682.06
2018-06-10T13:51:21.459Z,99689.73
2018-06-10T13:53:49.921Z,99688.55
2018-06-10T13:56:18.319Z,99684.22
2018-06-10T13:58:46.823Z,99670.98
2018-06-10T14:01:15.247Z,99676.44
2018-06-10T14:03:43.712Z,99680.83
2018-06-10T14:06:12.167Z,99684.59
2018-06-10T14:08:40.604Z,99693.53
2018-06-10T14:11:09.116Z,99702.30
2018-06-10T14:13:37.563Z,99715.89
2018-06-10T14:16:06.035Z,99731.59
2018-06-10T14:18:34.475Z,99737.85
2018-06-10T14:21:02.929Z,99722.89
2018-06-10T14:23:31.795Z,99727.23
2018-06-10T14:26:00.259Z,99748.71
2018-06-10T14:28:28.680Z,99754.46
2018-06-10T14:30:57.152Z,99733.26
2018-06-10T14:33:25.559Z,99736.88
2018-06-10T14:35:54.384Z,99733.72
2018-06-10T14:38:23.096Z,99723.27
2018-06-10T14:40:51.531Z,99712.59
2018-06-10T14:43:19.971Z,99708.93
2018-06-10T14:45:48.427Z,99704.78
2018-06-10T14:48:16.990Z,99689.97
2018-06-10T14:50:45.410Z,99684.12
2018-06-10T14:53:13.835Z,99678.63
2018-06-10T14:55:42.343Z,99675.48
2018-06-10T14:58:10.845Z,99677.45
2018-06-10T15:00:39.309Z,99666.34
2018-06-10T15:03:07.739Z,99663.03
2018-06-10T15:05:36.206Z,99656.58
2018-06-10T15:08:04.651Z,99660.13
2018-06-10T15:10:33.119Z,99654.56
2018-06-10T15:13:01.875Z,99651.13
2018-06-10T15:15:30.299Z,99653.55
2018-06-10T15:17:58.751Z,99649.69
2018-06-10T15:20:27.320Z,99648.85
2018-06-10T15:22:55.862Z,99649.48
2018-06-10T15:25:24.940Z,99650.76
2018-06-10T15:27:53.912Z,99645.44
2018-06-10T15:30:24.732Z,99640.31
2018-06-10T15:32:54.250Z,99643.64
2018-06-10T15:35:24.723Z,99634.02
2018-06-10T15:37:53.194Z,99627.78
2018-06-10T15:40:21.634Z,99621.87
2018-06-10T15:42:50.058Z,99619.86
2018-06-10T15:45:18.503Z,99622.33
2018-06-10T15:47:47.443Z,99619.64
2018-06-10T15:50:16.246Z,99623.77
2018-06-10T15:52:45.136Z,99631.30
2018-06-10T15:55:13.551Z,99638.81
2018-06-10T15:57:41.983Z,99635.05
2018-06-10T16:00:10.516Z,99637.67
2018-06-10T16:02:39.091Z,99637.75
2018-06-10T16:05:07.511Z,99639.73
2018-06-10T16:07:35.918Z,99635.47
2018-06-10T16:10:04.525Z,99626.50
2018-06-10T16:12:32.947Z,99627.03
2018-06-10T16:15:01.660Z,99630.73
2018-06-10T16:17:30.164Z,99632.73
2018-06-10T16:19:58.876Z,99629.20
2018-06-10T16:22:27.632Z,99624.59
2018-06-10T16:24:56.134Z,99626.41
2018-06-10T16:27:25.928Z,99629.01
2018-06-10T16:29:54.360Z,99613.54
2018-06-10T16:32:22.767Z,99616.12
2018-06-10T16:34:51.211Z,99615.08
2018-06-10T16:37:19.612Z,99626.83
2018-06-10T16:39:48.279Z,99628.41
2018-06-10T16:42:16.735Z,99629.89
2018-06-10T16:44:46.162Z,99631.22
2018-06-10T16:47:14.784Z,99628.95
2018-06-10T16:49:43.410Z,99639.50
2018-06-10T16:52:12.276Z,99640.84
2018-06-10T16:54:40.767Z,99636.41
2018-06-10T16:57:09.432Z,99635.06
2018-06-10T16:59:37.943Z,99641.44
2018-06-10T17:02:06.387Z,99647.30
2018-06-10T17:04:34.848Z,99642.94
2018-06-10T17:07:03.314Z,99641.58
2018-06-10T17:09:31.731Z,99645.48
2018-06-10T17:12:00.200Z,99643.05
2018-06-10T17:14:28.609Z,99637.26
2018-06-10T17:16:57.188Z,99634.08
2018-06-10T17:19:25.840Z,99627.72
2018-06-10T17:21:54.319Z,99618.47
2018-06-10T17:24:22.888Z,99626.30
2018-06-10T17:26:51.299Z,99619.03
2018-06-10T17:29:20.005Z,99614.82
2018-06-10T17:31:48.433Z,99603.31
2018-06-10T17:34:16.867Z,99606.03
2018-06-10T17:36:45.295Z,99604.59
2018-06-10T17:39:13.727Z,99613.63
2018-06-10T17:41:42.346Z,99616.38
2018-06-10T17:44:10.763Z,99618.39
2018-06-10T17:46:39.197Z,99626.67
2018-06-10T17:49:07.667Z,99627.27
2018-06-10T17:51:36.110Z,99631.42
2018-06-10T17:54:04.611Z,99635.05
2018-06-10T17:56:33.027Z,99638.20
2018-06-10T17:59:01.453Z,99650.80
2018-06-10T18:01:29.911Z,99650.42
2018-06-10T18:03:58.341Z,99644.69
2018-06-10T18:06:26.931Z,99639.91
2018-06-10T18:08:55.294Z,99635.09
2018-06-10T18:11:23.719Z,99630.33
2018-06-10T18:13:52.159Z,99645.23
2018-06-10T18:16:20.599Z,99652.89
2018-06-10T18:18:49.243Z,99648.80
2018-06-10T18:21:17.692Z,99665.39
2018-06-10T18:23:46.123Z,99663.15
2018-06-10T18:26:14.597Z,99669.86
2018-06-10T18:28:43.008Z,99664.57
2018-06-10T18:31:11.802Z,99670.14
2018-06-10T18:33:40.261Z,99672.23
2018-06-10T18:36:08.746Z,99667.79
2018-06-10T18:38:37.628Z,99668.88
2018-06-10T18:41:06.104Z,99675.96
2018-06-10T18:43:35.167Z,99680.83
2018-06-10T18:46:04.111Z,99690.14
2018-06-10T18:48:32.600Z,99693.28
2018-06-10T18:51:01.063Z,99690.55
2018-06-10T18:53:29.523Z,99696.23
2018-06-10T18:55:58.141Z,99699.04
2018-06-10T18:58:26.641Z,99700.67
2018-06-10T19:00:55.119Z,99711.47
2018-06-10T19:03:23.629Z,99711.67
2018-06-10T19:05:52.325Z,99712.69
2018-06-10T19:08:20.954Z,99700.69
2018-06-10T19:10:49.552Z,99696.70
2018-06-10T19:13:18.014Z,99701.04
2018-06-10T19:15:46.506Z,99700.73
2018-06-10T19:18:14.956Z,99699.78
2018-06-10T19:20:43.640Z,99701.38
2018-06-10T19:23:12.102Z,99696.95
2018-06-10T19:25:40.557Z,99702.61
2018-06-10T19:28:09.058Z,99708.98
2018-06-10T19:30:37.483Z,99706.97
2018-06-10T19:33:06.164Z,99712.69
2018-06-10T19:35:34.665Z,99715.16
2018-06-10T19:38:03.262Z,99715.06
2018-06-10T19:40:31.769Z,99712.86
2018-06-10T19:43:00.235Z,99708.28
2018-06-10T19:45:28.726Z,99707.67
2018-06-10T19:47:57.200Z,99704.35
2018-06-10T19:50:25.669Z,99708.34
2018-06-10T19:52:54.135Z,99708.70
2018-06-10T19:55:22.579Z,99713.51
2018-06-10T19:57:51.183Z,99714.08
2018-06-10T20:00:19.596Z,99720.73
2018-06-10T20:02:48.030Z,99728.92
2018-06-10T20:05:16.522Z,99741.13
2018-06-10T20:07:44.978Z,99732.91
2018-06-10T20:10:13.595Z,99731.77
2018-06-10T20:12:42.067Z,99734.58
2018-06-10T20:15:10.484Z,99730.25
2018-06-10T20:17:38.924Z,99732.11
2018-06-10T20:20:07.713Z,99726.52
2018-06-10T20:22:36.360Z,99733.95
2018-06-10T20:25:04.830Z,99736.41
2018-06-10T20:27:33.311Z,99733.67
2018-06-10T20:30:02.739Z,99741.00
2018-06-10T20:32:31.127Z,99731.03
2018-06-10T20:34:59.607Z,99734.31
2018-06-10T20:37:28.075Z,99742.21
2018-06-10T20:39:56.512Z,99749.31
2018-06-10T20:42:24.970Z,99758.80
2018-06-10T20:44:53.389Z,99765.61
2018-06-10T20:47:21.915Z,99770.38
2018-06-10T20:49:50.355Z,99777.63
2018-06-10T20:52:18.779Z,99780.63
2018-06-10T20:54:47.225Z,99783.89
2018-06-10T20:57:15.639Z,99783.77
2018-06-10T20:59:44.300Z,99777.03
2018-06-10T21:02:12.748Z,99776.09
2018-06-10T21:04:41.205Z,99776.78
2018-06-10T21:07:09.671Z,99780.94
2018-06-10T21:09:38.075Z,99781.18
2018-06-10T21:12:06.618Z,99782.05
2018-06-10T21:14:35.043Z,99783.70
2018-06-10T21:17:03.471Z,99787.86
2018-06-10T21:19:31.932Z,99787.64
2018-06-10T21:22:00.359Z,99798.84
2018-06-10T21:24:28.936Z,99796.84
2018-06-10T21:26:57.367Z,99796.66
2018-06-10T21:29:25.809Z,99805.59
2018-06-10T21:31:54.295Z,99804.91
2018-06-10T21:34:22.727Z,99802.08
2018-06-10T21:36:51.603Z,99802.75
2018-06-10T21:39:20.020Z,99797.16
2018-06-10T21:41:48.449Z,99792.12
2018-06-10T21:44:16.908Z,99787.48
2018-06-10T21:46:45.323Z,99792.69
2018-06-10T21:49:13.876Z,99794.48
2018-06-10T21:51:42.311Z,99796.89
2018-06-10T21:54:10.787Z,99793.09
2018-06-10T21:56:39.211Z,99787.27
2018-06-10T21:59:07.625Z,99794.63
2018-06-10T22:01:36.460Z,99787.86
2018-06-10T22:04:04.955Z,99784.88
2018-06-10T22:06:33.375Z,99788.08
2018-06-10T22:09:01.820Z,99790.47
2018-06-10T22:11:30.247Z,99787.41
2018-06-10T22:13:58.796Z,99788.13
2018-06-10T22:16:27.212Z,99778.73
2018-06-10T22:18:55.630Z,99770.97
2018-06-10T22:21:24.047Z,99775.73
2018-06-10T22:23:52.459Z,99787.58
2018-06-10T22:26:21.047Z,99786.23
2018-06-10T22:28:49.460Z,99788.77
2018-06-10T22:31:17.871Z,99786.95
2018-06-10T22:33:46.326Z,99788.30
2018-06-10T22:36:21.327Z,99788.57
2018-06-10T22:38:49.828Z,99792.53
2018-06-10T22:41:18.222Z,99788.73
2018-06-10T22:43:46.649Z,99787.84
2018-06-10T22:46:15.119Z,99800.41
2018-06-10T22:48:43.599Z,99805.50
2018-06-10T22:51:12.015Z,99814.33
2018-06-10T22:54:16.268Z,99832.60
2018-06-10T22:56:44.716Z,99838.28
2018-06-10T22:59:13.116Z,99839.73
2018-06-10T23:01:41.726Z,99831.28
2018-06-10T23:04:10.152Z,99832.77
2018-06-10T23:06:38.555Z,99829.69
2018-06-10T23:09:07.942Z,99826.76
2018-06-10T23:11:36.371Z,99808.73
2018-06-10T23:14:04.930Z,99795.34
2018-06-10T23:16:33.347Z,99790.11
2018-06-10T23:19:01.780Z,99793.98
2018-06-10T23:21:30.215Z,99793.16
2018-06-10T23:23:58.642Z,99795.23
2018-06-10T23:26:27.399Z,99790.42
2018-06-10T23:28:55.819Z,99786.33
2018-06-10T23:31:24.243Z,99783.25
2018-06-10T23:33:52.679Z,99787.08
2018-06-10T23:36:21.123Z,99780.05
2018-06-10T23:38:49.655Z,99784.97
2018-06-10T23:41:18.095Z,99785.23
2018-06-10T23:43:46.519Z,99792.00
2018-06-10T23:46:14.967Z,99781.11
2018-06-10T23:48:43.464Z,99780.69
2018-06-10T23:51:12.081Z,99788.97
2018-06-10T23:53:40.491Z,99785.30
2018-06-10T23:56:08.923Z,99787.98
2018-06-10T23:58:37.354Z,99793.59
